YBCSYBMA

Guest
Details From YBCS - Cairns Intl
To YBMA - Mount Isa
Flight Number -
Tags generated
Created
Modified
Stats Distance 423 nm / 784 km
Max Altitude 34,000 ft / 10,363 m
Waypoints 6
Social Downloads 0
Likes 0
Share VATSIM

Download

Looking for another format? Having issues loading an existing format? Contact us
Advertisement - Login to hide

Notes

Basic altitude profile: - Ascent Rate: 2500ft/min - Ascent Speed: 250kts - Cruise Altitude: 35000ft - Cruise Speed: 420kts - Descent Rate: 1500ft/min - Descent Speed: 250kts Options: - Use NATs: yes - Use PACOTS: yes - Use low airways: yes - Use high airways: yes

Route

YBCS BULOK J64 MA YBMA

ID Type Via Altitude Latitude Longitude Leg Dist Tot Dist Heading (true) Name
O YBCS APT - 0 ft / 0 m -16.88108˚ 145.75260˚ - 0 nm - Cairns Intl
BULOK FIX - 32,000 ft / 9,754 m -17.59722˚ 144.37694˚ 89 nm 89 nm 241° / 242° -
BIDAG FIX J64 (AWY-HI) 34,000 ft / 10,363 m -18.31750˚ 143.26306˚ 76 nm 166 nm 236° / 236° -
TASHA FIX J64 (AWY-HI) 18,000 ft / 5,486 m -20.11222˚ 140.39778˚ 194 nm 361 nm 236° / 237° -
MA VOR J64 (AWY-LO) 18,000 ft / 5,486 m -20.66472˚ 139.48583˚ 61 nm 422 nm 237° / 237° MOUNT ISA VOR-DME
O YBMA APT - 0 ft / 0 m -20.66637˚ 139.48844˚ 0 nm 423 nm 124° / 124° Mount Isa

Altitude Profile

Advertisement - Login to hide

Weather


0- 5 10 15 20 25 30 35+ Temperature / ° C

Clouds and Precipitation
Forecast for 2017-12-12 18:00 UTC. Updated an hour ago

Ground ~20,000 ft ~40,000 ft Winds

YBCS

Details ICAO YBCS (CNS)
Name Cairns Intl
Region Australia
Timezone Australia/Brisbane (UTC+10.0)
Stats Elevation 10 ft / 3 m (AMSL)
Location -16.881079° 145.752598°
Runways 2
Magnetic Variation 6.715° E

METAR

YBCS 121800Z 14005KT 9999 FEW024 23/20 Q1009 NOSIG

Decode

TAF

TAF YBCS 121656Z 1218/1318 16007KT 9999 FEW025 FM130000 13016KT 9999 FEW035 FM130800 16007KT 9999 FEW025

Decode

Departure Runways

ID Width Length Bearing (true) Bearing (mag) Surface Threshold Offset Overrun Length
12 62 ft / 19 m 3,045 ft / 928 m 125.77° 119.05° Asphalt 0 ft / 0 m 0 ft / 0 m
15 148 ft / 45 m 10,522 ft / 3,207 m 156.60° 149.88° Asphalt 0 ft / 0 m 328 ft / 100 m
30 62 ft / 19 m 3,045 ft / 928 m 305.77° 299.05° Asphalt 0 ft / 0 m 0 ft / 0 m
33 148 ft / 45 m 10,522 ft / 3,207 m 336.60° 329.88° Asphalt 0 ft / 0 m 0 ft / 0 m

YBMA

Details ICAO YBMA (ISA)
Name Mount Isa
Region Australia
Timezone Australia/Brisbane (UTC+10.0)
Stats Elevation 1,121 ft / 342 m (AMSL)
Location -20.666369° 139.488443°
Runways 1
Magnetic Variation 5.692° E

METAR

YBMA 121800Z AUTO 36005KT 340V040 9999 // NCD 23/15 Q1009

Decode

TAF

Not found

Destination Runways

ID Width Length Bearing (true) Bearing (mag) Surface Threshold Offset Overrun Length
16 148 ft / 45 m 8,859 ft / 2,700 m 167.80° 162.11° Asphalt 210 ft / 64 m 79 ft / 24 m
34 148 ft / 45 m 8,859 ft / 2,700 m 347.80° 342.11° Asphalt 213 ft / 65 m 49 ft / 15 m

Popular Alternatives